Time;durP1;ratioP1;P1;durP2;ratioP2;P2;SDS_P1;SDS_P2;PMS_P1;PMS_P2;Temp;Humidity;BMP_temperature;BMP_pressure;BME280_temperature;BME280_humidity;BME280_pressure;Samples;Min_cycle;Max_cycle;Signal;HPM_P1;HPM_P2
2022/03/30 00:01:53;;;;;;;8.73;6.10;;;16.00;53.30;16.30;95336.00;;;;4951453;29;20200;-88
2022/03/30 00:04:21;;;;;;;11.00;5.97;;;15.90;53.60;16.30;95339.00;;;;4951025;29;20200;-88
2022/03/30 00:06:48;;;;;;;11.97;5.83;;;15.90;53.90;16.30;95327.00;;;;4949998;28;20266;-88
2022/03/30 00:09:15;;;;;;;13.13;6.40;;;15.90;54.60;16.30;95332.00;;;;4951699;28;20246;-88
2022/03/30 00:11:44;;;;;;;9.40;5.83;;;15.80;54.40;16.20;95320.00;;;;4951476;29;20234;-88
2022/03/30 00:14:11;;;;;;;11.63;5.70;;;15.80;54.50;16.20;95318.00;;;;4951771;28;20200;-88
2022/03/30 00:16:38;;;;;;;12.33;6.43;;;15.80;54.50;16.20;95321.00;;;;4951584;28;20215;-88
2022/03/30 00:19:05;;;;;;;10.53;6.13;;;15.80;54.80;16.20;95317.00;;;;4951435;28;20572;-88
2022/03/30 00:21:32;;;;;;;10.37;6.03;;;15.70;55.20;16.20;95331.00;;;;4951659;28;20204;-88
2022/03/30 00:23:59;;;;;;;8.53;6.13;;;15.80;55.20;16.20;95322.00;;;;4937956;29;20234;-88
2022/03/30 00:26:26;;;;;;;12.00;6.27;;;15.80;55.60;16.20;95327.00;;;;4951492;29;20580;-89
2022/03/30 00:28:55;;;;;;;8.57;5.87;;;15.80;55.60;16.20;95326.00;;;;4951531;28;20200;-88
2022/03/30 00:31:22;;;;;;;9.20;6.30;;;15.70;55.40;16.10;95324.00;;;;4951291;29;20228;-88
2022/03/30 00:33:51;;;;;;;11.33;6.70;;;15.70;55.40;16.10;95312.00;;;;4951631;29;20243;-88
2022/03/30 00:36:18;;;;;;;11.67;5.77;;;15.70;55.30;16.10;95298.00;;;;4951625;29;20274;-89
2022/03/30 00:38:45;;;;;;;13.33;6.27;;;15.70;55.10;16.00;95305.00;;;;4951073;29;20203;-88
2022/03/30 00:41:12;;;;;;;9.63;5.87;;;15.70;54.60;16.00;95281.00;;;;4951187;29;20200;-88
2022/03/30 00:43:39;;;;;;;11.07;5.93;;;15.70;54.70;15.90;95294.00;;;;4951574;29;20235;-89
2022/03/30 00:46:11;;;;;;;10.07;6.00;;;15.60;54.80;15.90;95280.00;;;;4951205;29;20197;-88
2022/03/30 00:48:39;;;;;;;13.73;5.90;;;15.60;55.00;15.80;95277.00;;;;4951244;29;20252;-88
2022/03/30 00:51:06;;;;;;;6.23;4.80;;;15.50;54.20;15.80;95273.00;;;;4951109;28;20315;-88
2022/03/30 00:53:33;;;;;;;11.03;4.87;;;15.50;53.70;15.80;95271.00;;;;4951078;29;20662;-88
2022/03/30 00:56:00;;;;;;;9.53;4.87;;;15.50;53.50;15.80;95278.00;;;;4944040;29;20202;-88
2022/03/30 00:58:28;;;;;;;10.23;5.00;;;15.50;53.60;15.90;95266.00;;;;4954677;28;20294;-88
2022/03/30 01:00:56;;;;;;;10.00;5.10;;;15.50;53.90;15.90;95258.00;;;;4954245;29;20228;-88
2022/03/30 01:03:25;;;;;;;11.57;5.73;;;15.50;53.40;15.90;95246.00;;;;4954274;28;20543;-88
2022/03/30 01:05:52;;;;;;;12.10;5.33;;;15.50;53.50;15.90;95241.00;;;;4955367;28;20278;-88
2022/03/30 01:08:19;;;;;;;12.83;5.73;;;15.60;53.50;15.90;95236.00;;;;4961968;28;20203;-88
2022/03/30 01:10:47;;;;;;;10.93;6.00;;;15.50;53.90;15.90;95223.00;;;;4954083;28;20623;-88
2022/03/30 01:13:14;;;;;;;13.40;6.20;;;15.50;54.10;15.90;95239.00;;;;4954485;29;20242;-88
2022/03/30 01:15:41;;;;;;;10.80;6.00;;;15.50;54.60;15.80;95236.00;;;;4954140;28;20611;-88
2022/03/30 01:18:08;;;;;;;12.37;6.50;;;15.50;54.80;15.80;95209.00;;;;4954587;29;20212;-88
2022/03/30 01:20:37;;;;;;;11.00;5.63;;;15.40;54.60;15.70;95211.00;;;;4954211;29;20234;-88
2022/03/30 01:23:06;;;;;;;11.33;5.67;;;15.40;54.50;15.70;95208.00;;;;4954077;29;20206;-88
2022/03/30 01:25:34;;;;;;;8.00;5.60;;;15.40;54.30;15.70;95217.00;;;;4954178;28;20208;-88
2022/03/30 01:28:01;;;;;;;9.37;5.60;;;15.30;54.00;15.70;95206.00;;;;4954453;29;20206;-88
2022/03/30 01:33:12;;;;;;;9.97;5.30;;;15.30;54.00;15.70;95209.00;;;;4954300;29;20226;-88
2022/03/30 01:35:41;;;;;;;11.73;4.80;;;15.30;54.10;15.60;95197.00;;;;4953905;29;20207;-88
2022/03/30 01:38:10;;;;;;;11.00;5.40;;;15.30;54.10;15.70;95202.00;;;;4953895;29;20613;-88
2022/03/30 01:40:38;;;;;;;12.57;5.70;;;15.30;54.00;15.70;95198.00;;;;4953516;29;20224;-88
2022/03/30 01:43:06;;;;;;;7.90;5.67;;;15.30;54.00;15.70;95191.00;;;;4953663;28;20687;-88
2022/03/30 01:45:33;;;;;;;12.80;6.10;;;15.30;53.90;15.70;95192.00;;;;4953908;28;20204;-88
2022/03/30 01:48:02;;;;;;;12.03;5.70;;;15.30;53.70;15.70;95190.00;;;;4953928;28;20196;-88
2022/03/30 01:50:32;;;;;;;10.67;5.10;;;15.30;53.80;15.70;95190.00;;;;4953513;29;20224;-88
2022/03/30 01:53:00;;;;;;;12.90;5.37;;;15.30;54.00;15.70;95187.00;;;;4953771;29;20291;-88
2022/03/30 01:55:29;;;;;;;11.00;5.77;;;15.30;53.70;15.80;95175.00;;;;4953415;28;20609;-88
2022/03/30 01:57:56;;;;;;;9.17;5.60;;;15.40;53.60;15.80;95176.00;;;;4953509;29;20287;-88
2022/03/30 02:00:26;;;;;;;9.03;5.50;;;15.40;53.60;15.80;95175.00;;;;4953588;29;20220;-88
2022/03/30 02:02:53;;;;;;;10.70;5.47;;;15.40;53.80;15.80;95172.00;;;;4953546;28;20204;-88
2022/03/30 02:05:20;;;;;;;9.17;5.13;;;15.40;53.80;15.90;95168.00;;;;4956447;29;20208;-87
2022/03/30 02:07:48;;;;;;;13.17;5.87;;;15.50;54.60;15.90;95173.00;;;;4954823;29;20206;-88
2022/03/30 02:10:16;;;;;;;10.97;5.33;;;15.50;54.00;15.90;95170.00;;;;4955033;28;20306;-87
2022/03/30 02:12:44;;;;;;;12.20;5.73;;;15.50;53.90;16.00;95170.00;;;;4953814;28;20719;-87
2022/03/30 02:15:13;;;;;;;8.17;5.37;;;15.50;53.90;16.00;95172.00;;;;4953562;28;20196;-87
2022/03/30 02:17:41;;;;;;;12.30;5.47;;;15.60;53.90;16.00;95170.00;;;;4953359;29;20680;-87
2022/03/30 02:20:11;;;;;;;10.67;5.50;;;15.50;53.90;16.00;95171.00;;;;4953198;28;20732;-88
2022/03/30 02:22:39;;;;;;;11.60;4.87;;;15.60;53.80;16.00;95160.00;;;;4953345;29;20216;-88
2022/03/30 02:25:08;;;;;;;8.10;5.57;;;15.60;53.80;16.00;95158.00;;;;4952796;28;20208;-87
2022/03/30 02:27:35;;;;;;;6.70;5.30;;;15.60;53.60;16.00;95154.00;;;;4952842;28;20200;-88
2022/03/30 02:30:05;;;;;;;11.30;5.77;;;15.60;53.60;16.00;95160.00;;;;4953478;28;20223;-88
2022/03/30 02:32:32;;;;;;;11.70;5.43;;;15.60;53.80;16.00;95152.00;;;;4953021;28;20248;-88
2022/03/30 02:34:59;;;;;;;9.43;5.47;;;15.60;53.80;16.00;95147.00;;;;4952744;29;20279;-88
2022/03/30 02:37:26;;;;;;;9.70;5.70;;;15.60;53.80;16.00;95149.00;;;;4953275;29;20215;-88
2022/03/30 02:39:53;;;;;;;8.87;5.20;;;15.60;53.60;16.00;95145.00;;;;4952531;28;20230;-88
2022/03/30 02:42:20;;;;;;;7.13;5.17;;;15.60;53.30;16.00;95141.00;;;;4952642;29;20665;-88
2022/03/30 02:44:47;;;;;;;11.37;5.40;;;15.60;53.30;16.00;95133.00;;;;4952633;29;20289;-87
2022/03/30 02:47:15;;;;;;;11.10;5.67;;;15.60;53.60;16.00;95126.00;;;;4952889;29;20215;-88
2022/03/30 02:49:42;;;;;;;8.70;4.93;;;15.60;53.70;16.10;95125.00;;;;4952651;29;20314;-88
2022/03/30 02:52:09;;;;;;;9.50;4.80;;;15.60;53.60;16.10;95128.00;;;;4952635;29;20689;-88
2022/03/30 02:54:37;;;;;;;14.03;5.47;;;15.60;53.30;16.00;95127.00;;;;4952470;29;20204;-88
2022/03/30 02:57:04;;;;;;;11.53;5.13;;;15.60;53.00;16.00;95119.00;;;;4952390;29;20214;-88
2022/03/30 02:59:31;;;;;;;9.23;5.07;;;15.60;53.00;16.00;95117.00;;;;4952658;29;20306;-88
2022/03/30 03:01:59;;;;;;;10.47;5.20;;;15.60;52.90;16.00;95105.00;;;;4952394;29;20211;-87
2022/03/30 03:04:28;;;;;;;9.67;5.10;;;15.60;52.80;16.00;95097.00;;;;4952650;28;20204;-88
2022/03/30 03:06:55;;;;;;;10.43;5.23;;;15.60;53.10;16.00;95108.00;;;;4952590;28;20204;-88
2022/03/30 03:09:22;;;;;;;10.23;5.63;;;15.50;53.10;15.90;95104.00;;;;4952994;29;20227;-88
2022/03/30 03:11:49;;;;;;;11.30;4.80;;;15.50;53.10;15.90;95100.00;;;;4952101;28;20608;-88
2022/03/30 03:14:16;;;;;;;10.57;6.00;;;15.50;53.20;15.90;95098.00;;;;4952386;29;20224;-88
2022/03/30 03:16:43;;;;;;;9.77;5.13;;;15.50;53.40;15.90;95089.00;;;;4952045;29;20203;-88
2022/03/30 03:19:10;;;;;;;8.90;5.00;;;15.60;53.60;15.90;95096.00;;;;4951838;28;20224;-87
2022/03/30 03:21:39;;;;;;;9.80;5.87;;;15.40;53.70;15.80;95090.00;;;;4952423;29;20211;-88
2022/03/30 03:24:06;;;;;;;14.27;5.40;;;15.40;53.80;15.80;95103.00;;;;4952356;29;20216;-88
2022/03/30 03:26:36;;;;;;;13.33;6.50;;;15.50;53.80;15.80;95086.00;;;;4952309;28;20556;-88
2022/03/30 03:29:04;;;;;;;11.17;6.10;;;15.50;53.90;15.80;95090.00;;;;4952058;29;20585;-88
2022/03/30 03:31:31;;;;;;;16.80;7.07;;;15.40;53.90;15.80;95095.00;;;;4952096;29;20228;-88
2022/03/30 03:33:58;;;;;;;12.83;6.40;;;15.40;53.90;15.80;95086.00;;;;4951890;29;20195;-87
2022/03/30 03:36:25;;;;;;;11.43;6.83;;;15.40;53.90;15.70;95083.00;;;;4952002;29;20664;-88
2022/03/30 03:38:53;;;;;;;12.77;5.90;;;15.30;53.90;15.70;95084.00;;;;4952074;29;20208;-88
2022/03/30 03:41:20;;;;;;;11.43;5.73;;;15.30;53.50;15.70;95084.00;;;;4951970;29;20660;-88
2022/03/30 03:43:48;;;;;;;10.63;5.23;;;15.30;53.30;15.70;95080.00;;;;4952035;28;20203;-88
2022/03/30 03:46:15;;;;;;;8.93;5.67;;;15.30;53.90;15.70;95072.00;;;;4951895;28;20693;-88
2022/03/30 03:48:42;;;;;;;12.53;5.33;;;15.30;53.30;15.70;95074.00;;;;4951866;29;20200;-88
2022/03/30 03:51:09;;;;;;;10.67;5.20;;;15.30;53.30;15.70;95069.00;;;;4952074;29;20198;-88
2022/03/30 03:53:36;;;;;;;10.87;4.87;;;15.30;53.20;15.80;95067.00;;;;4941811;29;20291;-88
2022/03/30 03:56:06;;;;;;;14.93;5.13;;;15.40;53.00;15.70;95072.00;;;;4949137;29;20207;-88
2022/03/30 03:58:33;;;;;;;8.47;4.80;;;15.30;52.80;15.70;95060.00;;;;4951955;29;20661;-88
2022/03/30 04:01:00;;;;;;;11.93;4.87;;;15.40;52.70;15.70;95060.00;;;;4949242;28;20285;-88
2022/03/30 04:03:27;;;;;;;13.30;5.03;;;15.30;52.50;15.70;95051.00;;;;4960274;28;20200;-88
2022/03/30 04:05:54;;;;;;;10.93;5.30;;;15.30;52.50;15.70;95058.00;;;;4951665;28;20676;-88
2022/03/30 04:08:21;;;;;;;10.50;4.90;;;15.30;52.50;15.70;95058.00;;;;4951986;28;20202;-90
2022/03/30 04:10:49;;;;;;;11.30;4.70;;;15.30;52.50;15.70;95055.00;;;;4951332;29;20220;-88
2022/03/30 04:13:17;;;;;;;12.90;5.40;;;15.30;52.30;15.60;95051.00;;;;4951617;29;20224;-88
2022/03/30 04:15:44;;;;;;;7.37;4.77;;;15.30;52.40;15.60;95052.00;;;;4951631;29;20196;-88
2022/03/30 04:18:11;;;;;;;10.67;5.50;;;15.30;52.40;15.60;95052.00;;;;4951466;29;20283;-88
2022/03/30 04:20:42;;;;;;;9.90;4.90;;;15.30;52.40;15.60;95058.00;;;;4951474;28;20235;-86
2022/03/30 04:23:10;;;;;;;8.07;5.10;;;15.30;52.60;15.60;95057.00;;;;4951633;29;20196;-87
2022/03/30 04:25:37;;;;;;;14.37;6.27;;;15.30;52.90;15.60;95053.00;;;;4951378;28;20208;-88
2022/03/30 04:28:06;;;;;;;11.17;4.93;;;15.30;52.90;15.60;95054.00;;;;4951733;28;20295;-87
2022/03/30 04:30:34;;;;;;;12.13;5.10;;;15.30;52.90;15.60;95044.00;;;;4953486;28;20224;-88
2022/03/30 04:33:01;;;;;;;10.90;5.03;;;15.30;52.70;15.60;95039.00;;;;4954702;28;20689;-88
2022/03/30 04:35:28;;;;;;;10.97;5.23;;;15.20;52.40;15.60;95045.00;;;;4954546;29;20192;-86
2022/03/30 04:37:57;;;;;;;11.87;5.80;;;15.20;52.60;15.60;95045.00;;;;4954986;28;20196;-91
2022/03/30 04:40:27;;;;;;;14.50;6.07;;;15.20;52.60;15.60;95043.00;;;;4954675;28;20242;-91
2022/03/30 04:42:54;;;;;;;9.93;5.60;;;15.20;52.60;15.50;95046.00;;;;4955163;28;20212;-88
2022/03/30 04:45:23;;;;;;;10.67;5.37;;;15.20;52.50;15.50;95036.00;;;;4954677;29;20299;-88
2022/03/30 04:47:53;;;;;;;11.80;5.47;;;15.10;52.30;15.50;95039.00;;;;4954290;29;20267;-88
2022/03/30 04:50:20;;;;;;;10.73;5.60;;;15.10;52.60;15.50;95040.00;;;;4954914;28;20307;-88
2022/03/30 04:52:47;;;;;;;10.47;5.63;;;15.10;52.60;15.50;95030.00;;;;4954810;28;20232;-88
2022/03/30 04:55:15;;;;;;;10.17;5.40;;;15.10;52.70;15.40;95034.00;;;;4944173;29;20204;-89
2022/03/30 04:57:42;;;;;;;12.27;4.97;;;15.10;52.70;15.40;95034.00;;;;4936160;28;20231;-91
2022/03/30 05:00:12;;;;;;;11.53;5.43;;;15.10;52.60;15.40;95034.00;;;;4940158;29;20284;-91
2022/03/30 05:02:41;;;;;;;12.57;4.80;;;15.10;52.70;15.40;95027.00;;;;4940063;29;20207;-92
2022/03/30 05:05:10;;;;;;;15.30;5.33;;;15.00;52.60;15.40;95029.00;;;;4939171;28;20568;-89
2022/03/30 05:07:38;;;;;;;9.23;4.70;;;15.00;52.60;15.40;95037.00;;;;4944714;28;20260;-91
2022/03/30 05:10:10;;;;;;;7.67;4.90;;;15.00;52.70;15.40;95031.00;;;;4958896;28;20240;-92
2022/03/30 05:12:37;;;;;;;10.10;5.37;;;15.00;52.80;15.40;95034.00;;;;4956738;29;20215;-89
2022/03/30 05:15:05;;;;;;;11.37;5.10;;;15.00;52.80;15.50;95031.00;;;;4954822;28;20211;-88
2022/03/30 05:17:32;;;;;;;11.93;4.87;;;15.00;52.70;15.50;95034.00;;;;4954745;29;20684;-89
2022/03/30 05:19:59;;;;;;;11.77;4.80;;;15.00;52.70;15.50;95027.00;;;;4955262;28;20226;-90
2022/03/30 05:22:28;;;;;;;11.17;4.87;;;15.10;52.60;15.50;95034.00;;;;4954806;28;20299;-88
2022/03/30 05:24:57;;;;;;;12.67;5.13;;;15.10;52.40;15.50;95030.00;;;;4954477;29;20219;-89
2022/03/30 05:27:24;;;;;;;9.10;4.73;;;15.10;52.30;15.50;95030.00;;;;4954477;28;20197;-89
2022/03/30 05:29:51;;;;;;;9.00;4.73;;;15.10;52.30;15.50;95027.00;;;;4954564;29;20585;-89
2022/03/30 05:32:18;;;;;;;10.43;4.83;;;15.10;52.20;15.50;95035.00;;;;4954432;28;20234;-90
2022/03/30 05:34:45;;;;;;;10.60;4.97;;;15.10;52.20;15.50;95028.00;;;;4954633;28;20254;-89
2022/03/30 05:37:12;;;;;;;11.07;4.53;;;15.10;52.20;15.50;95037.00;;;;4954467;29;20580;-89
2022/03/30 05:39:42;;;;;;;9.83;4.87;;;15.10;52.10;15.50;95028.00;;;;4977204;23;20206;-82
2022/03/30 05:42:09;;;;;;;7.57;4.50;;;15.10;52.20;15.60;95031.00;;;;4956122;28;20223;-79
2022/03/30 05:44:37;;;;;;;12.97;4.90;;;15.10;52.30;15.60;95037.00;;;;4955726;28;20660;-79
2022/03/30 05:47:06;;;;;;;8.70;5.00;;;15.20;52.30;15.60;95032.00;;;;4955975;29;20204;-79
2022/03/30 05:49:34;;;;;;;8.93;4.73;;;15.20;52.30;15.70;95042.00;;;;4956434;28;20200;-80
2022/03/30 05:52:01;;;;;;;10.67;5.00;;;15.20;52.50;15.70;95041.00;;;;4955549;28;20601;-80
2022/03/30 05:54:28;;;;;;;11.07;4.80;;;15.20;52.70;15.70;95045.00;;;;4955203;28;20262;-79
2022/03/30 05:57:02;;;;;;;12.80;5.57;;;15.20;52.50;15.70;95035.00;;;;4955146;28;20204;-80
2022/03/30 05:59:31;;;;;;;10.20;4.77;;;15.30;52.40;15.80;95043.00;;;;4957882;28;20194;-85
2022/03/30 06:01:58;;;;;;;12.20;5.20;;;15.30;52.20;15.80;95045.00;;;;4954179;28;20235;-87
2022/03/30 06:04:32;;;;;;;8.00;4.90;;;15.30;52.20;15.80;95039.00;;;;4953630;28;20270;-84
2022/03/30 06:07:00;;;;;;;14.30;5.33;;;15.30;52.30;15.90;95038.00;;;;4968810;23;20255;-80
2022/03/30 06:09:28;;;;;;;16.53;5.33;;;15.30;52.30;15.90;95041.00;;;;4957206;28;20193;-80
2022/03/30 06:11:56;;;;;;;12.13;5.57;;;15.40;52.60;16.00;95039.00;;;;4956368;29;20200;-79
2022/03/30 06:14:24;;;;;;;9.60;5.10;;;15.40;52.90;16.00;95041.00;;;;4954291;29;20634;-80
2022/03/30 06:16:51;;;;;;;10.70;5.37;;;15.40;53.20;16.00;95044.00;;;;4951798;29;20208;-81
2022/03/30 06:19:18;;;;;;;10.97;4.90;;;15.40;53.40;16.10;95046.00;;;;4939536;29;20203;-80
2022/03/30 06:21:48;;;;;;;10.63;4.90;;;15.50;53.60;16.10;95044.00;;;;4956381;28;20196;-81
2022/03/30 06:24:15;;;;;;;11.97;4.97;;;15.50;53.80;16.10;95047.00;;;;4970676;28;20208;-81
2022/03/30 06:26:43;;;;;;;11.73;4.97;;;15.50;53.90;16.10;95052.00;;;;4959522;29;20278;-81
2022/03/30 06:29:12;;;;;;;12.57;5.30;;;15.50;53.90;16.20;95052.00;;;;4959160;28;20200;-81
2022/03/30 06:31:40;;;;;;;11.27;4.70;;;15.50;54.10;16.20;95053.00;;;;4947547;28;20217;-81
2022/03/30 06:34:08;;;;;;;12.80;5.10;;;15.60;54.10;16.20;95044.00;;;;4944113;28;20467;-81
2022/03/30 06:36:37;;;;;;;9.23;5.13;;;15.60;54.30;16.20;95047.00;;;;4954863;28;20580;-81
2022/03/30 06:39:06;;;;;;;11.83;4.93;;;15.60;54.40;16.20;95044.00;;;;4947484;28;20708;-81
2022/03/30 06:41:33;;;;;;;10.93;4.60;;;15.60;54.40;16.30;95048.00;;;;4952062;29;20239;-80
2022/03/30 06:44:00;;;;;;;7.10;4.60;;;15.60;54.50;16.30;95046.00;;;;4942031;29;20218;-81
2022/03/30 06:46:33;;;;;;;12.17;4.60;;;15.60;54.50;16.30;95051.00;;;;4957890;29;20201;-81
2022/03/30 06:49:01;;;;;;;8.47;5.00;;;15.70;54.60;16.30;95052.00;;;;4944377;29;20192;-81
2022/03/30 06:51:28;;;;;;;10.57;4.90;;;15.70;54.60;16.30;95056.00;;;;4959488;28;20215;-81
2022/03/30 06:53:55;;;;;;;9.70;4.77;;;15.70;54.70;16.30;95053.00;;;;4956418;28;20308;-81
2022/03/30 06:56:22;;;;;;;14.50;5.03;;;15.70;54.90;16.30;95051.00;;;;4947771;29;20220;-80
2022/03/30 06:58:50;;;;;;;12.20;5.00;;;15.70;54.50;16.30;95044.00;;;;4953373;28;20192;-81
2022/03/30 07:01:17;;;;;;;18.17;5.07;;;15.70;54.70;16.40;95044.00;;;;4959637;28;20224;-81
2022/03/30 07:03:45;;;;;;;15.10;5.50;;;15.80;54.70;16.40;95044.00;;;;4949844;28;20670;-81
2022/03/30 07:06:12;;;;;;;10.30;4.57;;;15.80;54.60;16.40;95051.00;;;;4958307;28;20192;-80
2022/03/30 07:11:24;;;;;;;11.53;4.93;;;15.80;54.40;16.30;95058.00;;;;4958716;29;20227;-81
2022/03/30 07:13:52;;;;;;;12.73;4.90;;;15.80;54.00;16.30;95052.00;;;;4958677;28;20224;-81
2022/03/30 07:16:19;;;;;;;9.13;3.97;;;15.80;54.20;16.30;95054.00;;;;4940411;28;20251;-81
2022/03/30 07:18:49;;;;;;;10.07;4.60;;;15.80;54.20;16.30;95056.00;;;;4942775;29;20201;-81
2022/03/30 07:21:16;;;;;;;18.57;4.50;;;15.80;54.40;16.30;95045.00;;;;4939521;28;20233;-81
2022/03/30 07:23:43;;;;;;;11.07;4.43;;;15.80;54.40;16.30;95051.00;;;;4950874;29;20676;-81
2022/03/30 07:26:10;;;;;;;14.50;4.93;;;15.80;54.50;16.30;95040.00;;;;4957784;29;20208;-81
2022/03/30 07:28:38;;;;;;;15.10;5.50;;;15.80;54.80;16.30;95046.00;;;;4954684;28;20561;-81
2022/03/30 07:31:05;;;;;;;9.17;3.90;;;15.80;54.90;16.30;95046.00;;;;4958995;28;20216;-81
2022/03/30 07:33:33;;;;;;;16.20;4.07;;;15.80;55.00;16.30;95049.00;;;;4958333;29;20220;-81
2022/03/30 07:36:01;;;;;;;13.60;4.43;;;15.80;55.30;16.30;95043.00;;;;4942494;28;20225;-81
2022/03/30 07:38:28;;;;;;;9.30;3.80;;;15.80;55.30;16.40;95045.00;;;;4952602;28;20206;-81
2022/03/30 07:41:00;;;;;;;10.07;3.87;;;15.80;55.10;16.40;95044.00;;;;4947733;28;20216;-81
2022/03/30 07:43:28;;;;;;;8.93;3.90;;;15.90;55.20;16.50;95045.00;;;;4945531;28;20674;-81
2022/03/30 07:45:56;;;;;;;8.73;3.70;;;15.90;55.20;16.60;95048.00;;;;4951011;28;20196;-81
2022/03/30 07:48:23;;;;;;;10.90;4.10;;;16.00;55.20;16.70;95050.00;;;;4956428;28;20618;-81
2022/03/30 07:50:50;;;;;;;10.40;4.23;;;16.00;55.10;16.80;95046.00;;;;4946723;28;20227;-80
2022/03/30 07:53:19;;;;;;;23.27;4.77;;;16.10;55.00;16.90;95046.00;;;;4957519;29;20684;-81
2022/03/30 07:55:47;;;;;;;10.37;4.10;;;16.20;55.10;17.00;95042.00;;;;4944643;29;20284;-81
2022/03/30 07:58:15;;;;;;;11.07;4.03;;;16.30;54.90;17.00;95041.00;;;;4948981;28;20219;-81
2022/03/30 08:00:42;;;;;;;9.10;3.83;;;16.30;54.80;17.10;95047.00;;;;4948664;28;20209;-80
2022/03/30 08:03:09;;;;;;;15.33;4.70;;;16.40;54.90;17.20;95047.00;;;;4947282;28;20264;-81
2022/03/30 08:05:36;;;;;;;14.77;4.37;;;16.50;54.50;17.30;95056.00;;;;4946670;29;20268;-81
2022/03/30 08:08:06;;;;;;;10.27;3.93;;;16.50;54.40;17.40;95045.00;;;;4960310;28;20657;-81
2022/03/30 08:10:35;;;;;;;12.20;4.37;;;16.60;54.30;17.50;95045.00;;;;4958582;29;20265;-81
2022/03/30 08:13:03;;;;;;;9.70;3.77;;;16.70;54.30;17.60;95046.00;;;;4954861;29;20292;-80
2022/03/30 08:15:31;;;;;;;12.53;3.83;;;16.80;54.40;17.70;95053.00;;;;4942020;28;20205;-81
2022/03/30 08:18:08;;;;;;;11.00;4.27;;;16.90;54.30;17.80;95054.00;;;;4953321;29;20192;-81
2022/03/30 08:23:20;;;;;;;9.77;3.83;;;17.00;53.80;17.80;95050.00;;;;4953189;29;20214;-81
2022/03/30 08:25:48;;;;;;;13.90;4.10;;;17.10;53.80;17.90;95051.00;;;;4946775;28;20592;-81
2022/03/30 08:28:15;;;;;;;10.10;3.70;;;17.20;53.60;17.90;95045.00;;;;4945942;28;20201;-81
2022/03/30 08:30:42;;;;;;;9.10;3.77;;;17.20;53.50;17.90;95045.00;;;;4952211;28;20701;-81
2022/03/30 08:33:09;;;;;;;8.87;4.17;;;17.30;53.30;17.90;95054.00;;;;4952327;28;20222;-80
2022/03/30 08:35:37;;;;;;;9.93;3.33;;;17.30;53.00;17.90;95052.00;;;;4950983;28;20381;-81
2022/03/30 08:38:04;;;;;;;13.73;4.67;;;17.30;53.00;18.00;95053.00;;;;4957952;29;20192;-80
2022/03/30 08:40:31;;;;;;;8.97;4.43;;;17.40;53.00;18.00;95049.00;;;;4954989;29;20228;-81
2022/03/30 08:42:59;;;;;;;10.07;3.63;;;17.40;52.90;18.10;95052.00;;;;4953367;28;20204;-81
2022/03/30 08:45:26;;;;;;;5.87;3.00;;;17.40;53.00;18.10;95049.00;;;;4942507;28;20201;-81
2022/03/30 08:47:53;;;;;;;14.43;4.10;;;17.50;52.90;18.20;95054.00;;;;4951848;28;20203;-81
2022/03/30 08:50:22;;;;;;;11.53;3.60;;;17.50;52.80;18.20;95051.00;;;;4950425;28;20213;-81
2022/03/30 08:52:51;;;;;;;13.07;3.80;;;17.50;52.70;18.20;95046.00;;;;4963072;28;20269;-80
2022/03/30 08:55:19;;;;;;;13.60;3.93;;;17.60;53.00;18.30;95050.00;;;;4947567;29;20193;-81
2022/03/30 08:57:46;;;;;;;12.00;4.00;;;17.60;53.00;18.30;95047.00;;;;4958515;28;20202;-81
2022/03/30 09:00:19;;;;;;;10.43;3.83;;;17.70;53.00;18.40;95048.00;;;;4960480;28;20238;-82
2022/03/30 09:02:52;;;;;;;9.23;3.70;;;17.70;53.30;18.50;95057.00;;;;4951109;29;20291;-82
2022/03/30 09:05:21;;;;;;;9.47;3.83;;;17.80;53.10;18.60;95054.00;;;;4956733;28;20279;-82
2022/03/30 09:07:51;;;;;;;8.80;3.27;;;17.80;52.80;18.60;95051.00;;;;4950975;29;20204;-81
2022/03/30 09:10:21;;;;;;;7.23;3.50;;;17.90;52.70;18.70;95046.00;;;;4957422;28;20662;-80
2022/03/30 09:12:51;;;;;;;11.03;3.83;;;17.90;52.70;18.70;95040.00;;;;4963247;29;20207;-80
2022/03/30 09:15:21;;;;;;;13.17;3.73;;;18.00;52.80;18.80;95045.00;;;;4963101;28;20704;-80
2022/03/30 09:17:49;;;;;;;11.70;4.33;;;18.10;52.90;18.90;95039.00;;;;4961090;28;20207;-80
2022/03/30 09:20:20;;;;;;;8.73;3.80;;;18.10;52.70;19.00;95042.00;;;;4944306;28;20221;-80
2022/03/30 09:22:50;;;;;;;7.80;3.03;;;18.20;52.60;19.10;95040.00;;;;4953140;28;20224;-81
2022/03/30 09:25:17;;;;;;;7.30;3.20;;;18.20;52.30;19.10;95047.00;;;;4951321;28;20193;-81
2022/03/30 09:27:47;;;;;;;9.23;3.30;;;18.30;52.10;19.10;95047.00;;;;4945267;28;20279;-80
2022/03/30 09:30:17;;;;;;;9.33;3.50;;;18.30;52.10;19.20;95048.00;;;;4943312;28;20217;-80
2022/03/30 09:32:48;;;;;;;12.73;3.80;;;18.40;52.00;19.20;95046.00;;;;4951264;28;20204;-81
2022/03/30 09:35:25;;;;;;;8.30;3.00;;;18.40;51.70;19.20;95041.00;;;;4955299;29;20193;-81
2022/03/30 09:38:09;;;;;;;8.60;3.87;;;18.50;51.70;19.20;95043.00;;;;4949074;29;20200;-81
2022/03/30 09:40:45;;;;;;;12.67;3.70;;;18.60;51.70;19.30;95045.00;;;;4963205;28;20302;-81
2022/03/30 09:43:20;;;;;;;10.23;3.93;;;18.60;51.60;19.30;95045.00;;;;4976452;28;20242;-81
2022/03/30 09:45:51;;;;;;;11.57;3.73;;;18.60;51.90;19.40;95031.00;;;;4942070;28;20196;-81
2022/03/30 09:48:27;;;;;;;8.27;3.83;;;18.70;51.70;19.40;95035.00;;;;4947206;28;20284;-81
2022/03/30 09:50:57;;;;;;;9.23;3.80;;;18.70;51.60;19.50;95037.00;;;;4938373;29;20224;-79
2022/03/30 09:53:28;;;;;;;10.40;4.03;;;18.80;51.50;19.40;95030.00;;;;4949863;28;20712;-81
2022/03/30 09:55:59;;;;;;;11.87;3.90;;;18.80;51.50;19.40;95030.00;;;;4959988;29;20210;-83
2022/03/30 09:58:28;;;;;;;14.43;4.27;;;18.80;51.40;19.40;95027.00;;;;4958400;29;20652;-82
2022/03/30 10:01:15;;;;;;;9.33;4.30;;;18.80;51.40;19.30;95025.00;;;;4958129;28;20231;-80
2022/03/30 10:03:51;;;;;;;10.20;3.97;;;18.80;51.50;19.20;95023.00;;;;4960804;28;20234;-81
2022/03/30 10:06:20;;;;;;;7.80;3.33;;;18.70;51.40;19.20;95021.00;;;;4961195;29;20357;-81
2022/03/30 10:08:50;;;;;;;10.20;3.77;;;18.70;51.60;19.20;95014.00;;;;4960168;29;20294;-80
2022/03/30 10:11:20;;;;;;;8.23;3.53;;;18.60;51.60;19.10;95007.00;;;;4959653;28;20361;-80
2022/03/30 10:13:50;;;;;;;8.90;3.60;;;18.60;52.00;19.10;94999.00;;;;4959682;28;20239;-81
2022/03/30 10:16:18;;;;;;;12.97;3.93;;;18.50;52.10;19.10;94995.00;;;;4960217;28;20200;-81
2022/03/30 10:18:47;;;;;;;8.27;3.27;;;18.50;52.00;19.10;94990.00;;;;4959309;28;20204;-80
2022/03/30 10:21:27;;;;;;;9.53;3.43;;;18.50;52.10;19.10;94987.00;;;;4959031;28;20709;-80
2022/03/30 10:24:45;;;;;;;9.73;3.97;;;18.50;52.30;19.20;94986.00;;;;4959091;29;20214;-81
2022/03/30 10:27:28;;;;;;;9.07;3.43;;;18.50;52.60;19.20;94989.00;;;;4957712;28;20200;-80
2022/03/30 10:30:01;;;;;;;9.37;4.40;;;18.50;52.30;19.20;94989.00;;;;4958606;29;20767;-80
2022/03/30 10:32:34;;;;;;;11.73;4.03;;;18.50;52.20;19.20;94992.00;;;;4959054;29;20212;-81
2022/03/30 10:35:09;;;;;;;11.87;3.77;;;18.50;52.10;19.20;94985.00;;;;4958521;29;20220;-80
2022/03/30 10:37:38;;;;;;;11.63;3.80;;;18.50;52.30;19.20;94981.00;;;;4958335;29;20223;-80
2022/03/30 10:40:17;;;;;;;11.23;3.80;;;18.50;52.40;19.20;94979.00;;;;4958616;29;20613;-81
2022/03/30 10:43:06;;;;;;;8.73;3.20;;;18.50;52.30;19.20;94983.00;;;;4958470;28;20583;-80
2022/03/30 10:45:43;;;;;;;10.33;3.87;;;18.50;52.70;19.20;94979.00;;;;4957934;29;20200;-81
2022/03/30 10:48:17;;;;;;;12.00;4.77;;;18.50;52.80;19.10;94984.00;;;;4958711;29;20286;-81
2022/03/30 10:50:49;;;;;;;9.60;3.90;;;18.40;52.80;19.00;94971.00;;;;4960712;29;20774;-81
2022/03/30 10:53:38;;;;;;;11.87;4.00;;;18.40;52.90;18.90;94968.00;;;;4959541;29;20211;-82
2022/03/30 10:56:33;;;;;;;11.43;4.57;;;18.30;53.40;18.90;94977.00;;;;4958427;29;20227;-81
2022/03/30 10:59:17;;;;;;;14.60;3.83;;;18.30;53.60;18.80;94974.00;;;;4962780;28;20242;-81
2022/03/30 11:01:46;;;;;;;7.37;3.60;;;18.20;53.80;18.70;94973.00;;;;4957920;29;20224;-81
2022/03/30 11:04:24;;;;;;;11.07;4.20;;;18.10;54.00;18.60;94973.00;;;;4958553;29;20224;-81
2022/03/30 11:07:36;;;;;;;12.23;4.27;;;18.10;54.70;18.50;94966.00;;;;4958045;29;20227;-81